Time;durP1;ratioP1;P1;durP2;ratioP2;P2;SDS_P1;SDS_P2;PMS_P1;PMS_P2;Temp;Humidity;BMP_temperature;BMP_pressure;BME280_temperature;BME280_humidity;BME280_pressure;Samples;Min_cycle;Max_cycle;Signal;HPM_P1;HPM_P2
2020/12/24 00:00:08;;;;;;;;;;;9.90;99.90;;;;;;5032311;28;19949;-74
2020/12/24 00:02:34;;;;;;;;;;;9.90;99.90;;;;;;5020215;28;20386;-73
2020/12/24 00:05:00;;;;;;;;;;;9.80;99.90;;;;;;5013571;28;19925;-73
2020/12/24 00:07:26;;;;;;;;;;;9.80;99.90;;;;;;5013457;28;20290;-74
2020/12/24 00:09:52;;;;;;;;;;;9.90;99.90;;;;;;5027862;28;19932;-75
2020/12/24 00:12:18;;;;;;;;;;;9.90;99.90;;;;;;5014646;28;20322;-74
2020/12/24 00:14:44;;;;;;;;;;;9.90;99.90;;;;;;5015175;28;19971;-75
2020/12/24 00:17:10;;;;;;;;;;;9.90;99.90;;;;;;5014735;28;20020;-74
2020/12/24 00:19:36;;;;;;;;;;;9.90;99.90;;;;;;5014867;28;19925;-75
2020/12/24 00:22:03;;;;;;;;;;;10.00;99.90;;;;;;5014242;28;19926;-74
2020/12/24 00:24:29;;;;;;;;;;;9.90;99.90;;;;;;5014723;28;19925;-74
2020/12/24 00:26:55;;;;;;;;;;;9.90;99.90;;;;;;5014823;28;19929;-74
2020/12/24 00:29:21;;;;;;;;;;;9.90;99.90;;;;;;5014546;28;20444;-74
2020/12/24 00:31:47;;;;;;;;;;;10.00;99.90;;;;;;5026291;28;19926;-74
2020/12/24 00:34:13;;;;;;;;;;;10.00;99.90;;;;;;5034096;28;19936;-75
2020/12/24 00:36:39;;;;;;;;;;;10.00;99.90;;;;;;5030385;28;19925;-74
2020/12/24 00:39:05;;;;;;;;;;;10.00;99.90;;;;;;5014299;28;19926;-74
2020/12/24 00:41:31;;;;;;;;;;;10.00;99.90;;;;;;5013846;28;19996;-74
2020/12/24 00:43:57;;;;;;;;;;;10.00;99.90;;;;;;5014257;28;19926;-74
2020/12/24 00:46:23;;;;;;;;;;;10.00;99.90;;;;;;5027751;28;20453;-74
2020/12/24 00:48:50;;;;;;;;;;;10.00;99.90;;;;;;5030676;28;19932;-74
2020/12/24 00:51:16;;;;;;;;;;;10.00;99.90;;;;;;5013750;28;20294;-74
2020/12/24 00:53:42;;;;;;;;;;;10.00;99.90;;;;;;5014043;28;19933;-74
2020/12/24 00:56:10;;;;;;;;;;;10.00;99.90;;;;;;5013784;28;19932;-73
2020/12/24 00:58:36;;;;;;;;;;;10.00;99.90;;;;;;5013989;28;19930;-74
2020/12/24 01:01:02;;;;;;;;;;;10.00;99.90;;;;;;5025902;28;19925;-74
2020/12/24 01:03:28;;;;;;;;;;;10.00;99.90;;;;;;5033188;28;19932;-74
2020/12/24 01:05:55;;;;;;;;;;;10.00;99.90;;;;;;5032772;28;19931;-74
2020/12/24 01:08:21;;;;;;;;;;;10.00;99.90;;;;;;5033370;28;19945;-74
2020/12/24 01:10:47;;;;;;;;;;;10.00;99.90;;;;;;5032413;28;19925;-74
2020/12/24 01:13:13;;;;;;;;;;;10.00;99.90;;;;;;5022261;28;19933;-74
2020/12/24 01:15:39;;;;;;;;;;;10.00;99.90;;;;;;5013572;28;20422;-73
2020/12/24 01:18:05;;;;;;;;;;;10.00;99.90;;;;;;5013652;28;19925;-74
2020/12/24 01:20:31;;;;;;;;;;;9.90;99.90;;;;;;5013109;28;19932;-74
2020/12/24 01:22:59;;;;;;;;;;;9.90;99.90;;;;;;5013440;28;19926;-73
2020/12/24 01:25:25;;;;;;;;;;;9.90;99.90;;;;;;5013642;28;19932;-73
2020/12/24 01:27:51;;;;;;;;;;;9.90;99.90;;;;;;5013276;28;19925;-73
2020/12/24 01:30:17;;;;;;;;;;;9.90;99.90;;;;;;5012867;28;19936;-73
2020/12/24 01:32:43;;;;;;;;;;;9.80;99.90;;;;;;5013676;28;19929;-73
2020/12/24 01:35:09;;;;;;;;;;;9.80;99.90;;;;;;5032749;28;19925;-73
2020/12/24 01:37:35;;;;;;;;;;;9.80;99.90;;;;;;5027428;28;19925;-73
2020/12/24 01:40:03;;;;;;;;;;;9.80;99.90;;;;;;5013179;28;20373;-73
2020/12/24 01:42:29;;;;;;;;;;;9.80;99.90;;;;;;5012960;28;19926;-73
2020/12/24 01:44:55;;;;;;;;;;;9.80;99.90;;;;;;5015246;28;19925;-73
2020/12/24 01:47:21;;;;;;;;;;;9.80;99.90;;;;;;5032803;28;20274;-73
2020/12/24 01:49:47;;;;;;;;;;;9.80;99.90;;;;;;5029492;28;20393;-73
2020/12/24 01:52:24;;;;;;;;;;;9.90;99.90;;;;;;5013253;28;20308;-73
2020/12/24 01:54:50;;;;;;;;;;;9.90;99.90;;;;;;5013013;28;19980;-73
2020/12/24 01:57:17;;;;;;;;;;;9.90;99.90;;;;;;5013100;28;19961;-73
2020/12/24 01:59:43;;;;;;;;;;;9.90;99.90;;;;;;5012916;28;19929;-73
2020/12/24 02:02:09;;;;;;;;;;;9.80;99.90;;;;;;5021281;28;19979;-73
2020/12/24 02:04:35;;;;;;;;;;;9.80;99.90;;;;;;5032235;28;19931;-73
2020/12/24 02:07:01;;;;;;;;;;;9.70;99.90;;;;;;5032498;28;20443;-73
2020/12/24 02:09:27;;;;;;;;;;;9.70;99.90;;;;;;5031859;28;19925;-73
2020/12/24 02:11:53;;;;;;;;;;;9.60;99.90;;;;;;5032246;28;19929;-74
2020/12/24 02:14:19;;;;;;;;;;;9.60;99.90;;;;;;5032512;28;20312;-74
2020/12/24 02:16:45;;;;;;;;;;;9.60;99.90;;;;;;5013906;28;19932;-74
2020/12/24 02:19:11;;;;;;;;;;;9.60;99.90;;;;;;5002960;28;19926;-74
2020/12/24 02:21:38;;;;;;;;;;;9.60;99.90;;;;;;5009094;28;19925;-74
2020/12/24 02:24:04;;;;;;;;;;;9.50;99.90;;;;;;5012321;28;20285;-74
2020/12/24 02:26:30;;;;;;;;;;;9.50;99.90;;;;;;5028107;28;19925;-74
2020/12/24 02:28:56;;;;;;;;;;;9.50;99.90;;;;;;5019243;28;20348;-74
2020/12/24 02:31:22;;;;;;;;;;;9.40;99.90;;;;;;5012166;28;19925;-74
2020/12/24 02:33:48;;;;;;;;;;;9.40;99.90;;;;;;5013575;28;19926;-74
2020/12/24 02:36:14;;;;;;;;;;;9.40;99.90;;;;;;5012722;28;19930;-73
2020/12/24 02:38:41;;;;;;;;;;;9.40;99.90;;;;;;5013479;28;19976;-74
2020/12/24 02:41:07;;;;;;;;;;;9.40;99.90;;;;;;5012135;28;19933;-73
2020/12/24 02:43:33;;;;;;;;;;;9.40;99.90;;;;;;5012503;28;19930;-74
2020/12/24 02:45:59;;;;;;;;;;;9.40;99.90;;;;;;5012465;28;20402;-73
2020/12/24 02:48:25;;;;;;;;;;;9.40;99.90;;;;;;5017778;28;19932;-73
2020/12/24 02:50:51;;;;;;;;;;;9.40;99.90;;;;;;5031478;28;19925;-73
2020/12/24 02:53:17;;;;;;;;;;;9.40;99.90;;;;;;5031817;28;20413;-74
2020/12/24 02:55:45;;;;;;;;;;;9.40;99.90;;;;;;5031959;28;19929;-74
2020/12/24 02:58:11;;;;;;;;;;;9.40;99.90;;;;;;5026995;28;20401;-74
2020/12/24 03:00:37;;;;;;;;;;;9.30;99.90;;;;;;5011815;28;20390;-74
2020/12/24 03:03:03;;;;;;;;;;;9.30;99.90;;;;;;5012363;28;19936;-74
2020/12/24 03:05:29;;;;;;;;;;;9.40;99.90;;;;;;5012360;28;20352;-74
2020/12/24 03:07:55;;;;;;;;;;;9.40;99.90;;;;;;5012267;28;19925;-73
2020/12/24 03:10:21;;;;;;;;;;;9.40;99.90;;;;;;5011762;28;19932;-74
2020/12/24 03:12:48;;;;;;;;;;;9.50;99.90;;;;;;5012087;28;20337;-74
2020/12/24 03:15:14;;;;;;;;;;;9.50;99.90;;;;;;5012311;28;19933;-74
2020/12/24 03:17:40;;;;;;;;;;;9.50;99.90;;;;;;5012057;28;20307;-73
2020/12/24 03:20:07;;;;;;;;;;;9.50;99.90;;;;;;5012341;28;19925;-74
2020/12/24 03:22:34;;;;;;;;;;;9.50;99.90;;;;;;5029158;28;19974;-74
2020/12/24 03:25:00;;;;;;;;;;;9.50;99.90;;;;;;5031739;28;19979;-74
2020/12/24 03:27:26;;;;;;;;;;;9.50;99.90;;;;;;5018787;28;19925;-74
2020/12/24 03:29:52;;;;;;;;;;;9.40;99.90;;;;;;5011937;28;19925;-74
2020/12/24 03:32:18;;;;;;;;;;;9.40;99.90;;;;;;5027601;28;19925;-73
2020/12/24 03:34:44;;;;;;;;;;;9.40;99.90;;;;;;5033961;28;20415;-74
2020/12/24 03:37:10;;;;;;;;;;;9.40;99.90;;;;;;5035277;28;19925;-73
2020/12/24 03:39:36;;;;;;;;;;;9.40;99.90;;;;;;5034899;28;19979;-73
2020/12/24 03:42:02;;;;;;;;;;;9.40;99.90;;;;;;5034362;28;19925;-73
2020/12/24 03:44:28;;;;;;;;;;;9.40;99.90;;;;;;5035266;28;20408;-73
2020/12/24 03:46:55;;;;;;;;;;;9.40;99.90;;;;;;5034722;28;19954;-73
2020/12/24 03:49:21;;;;;;;;;;;9.40;99.90;;;;;;5033252;28;19925;-74
2020/12/24 03:51:47;;;;;;;;;;;9.30;99.90;;;;;;5028198;28;20401;-74
2020/12/24 03:54:13;;;;;;;;;;;9.30;99.90;;;;;;5019367;28;19929;-73
2020/12/24 03:56:39;;;;;;;;;;;9.30;99.90;;;;;;5015101;28;19940;-74
2020/12/24 03:59:05;;;;;;;;;;;9.30;99.90;;;;;;5015178;28;19960;-74
2020/12/24 04:01:31;;;;;;;;;;;9.40;99.90;;;;;;5014687;28;19926;-74
2020/12/24 04:03:58;;;;;;;;;;;9.40;99.90;;;;;;5015006;28;20345;-73
2020/12/24 04:06:24;;;;;;;;;;;9.50;99.90;;;;;;5015388;28;19926;-74
2020/12/24 04:08:50;;;;;;;;;;;9.50;99.90;;;;;;5014908;28;20568;-74
2020/12/24 04:11:16;;;;;;;;;;;9.60;99.90;;;;;;5014348;28;19925;-75
2020/12/24 04:13:42;;;;;;;;;;;9.60;99.90;;;;;;5016141;28;19932;-74
2020/12/24 04:16:08;;;;;;;;;;;9.60;99.90;;;;;;5033207;28;19925;-74
2020/12/24 04:18:34;;;;;;;;;;;9.60;99.90;;;;;;5034676;28;19929;-74
2020/12/24 04:21:00;;;;;;;;;;;9.60;99.90;;;;;;5033725;28;19925;-74
2020/12/24 04:23:26;;;;;;;;;;;9.60;99.90;;;;;;5025721;28;19947;-74
2020/12/24 04:25:52;;;;;;;;;;;9.60;99.90;;;;;;5014467;28;20386;-74
2020/12/24 04:28:18;;;;;;;;;;;9.60;99.90;;;;;;5014712;28;19933;-74
2020/12/24 04:30:44;;;;;;;;;;;9.60;99.90;;;;;;5014175;28;20014;-74
2020/12/24 04:33:10;;;;;;;;;;;9.60;99.90;;;;;;5014523;28;19932;-74
2020/12/24 04:35:36;;;;;;;;;;;9.50;99.90;;;;;;5014376;28;19925;-74
2020/12/24 04:38:03;;;;;;;;;;;9.60;99.90;;;;;;5014367;28;20055;-74
2020/12/24 04:40:29;;;;;;;;;;;9.50;99.90;;;;;;5015318;28;19936;-73
2020/12/24 04:42:56;;;;;;;;;;;9.50;99.90;;;;;;5034251;28;19926;-74
2020/12/24 04:45:23;;;;;;;;;;;9.50;99.90;;;;;;5020418;28;19925;-74
2020/12/24 04:47:53;;;;;;;;;;;9.40;99.90;;;;;;5025691;28;19934;-74
2020/12/24 04:50:19;;;;;;;;;;;9.40;99.90;;;;;;5024509;28;19925;-74
2020/12/24 04:52:46;;;;;;;;;;;9.30;99.90;;;;;;5025740;28;19979;-74
2020/12/24 04:55:12;;;;;;;;;;;9.30;99.90;;;;;;5014069;28;19937;-74
2020/12/24 04:57:39;;;;;;;;;;;9.30;99.90;;;;;;5014104;28;19925;-74
2020/12/24 05:00:05;;;;;;;;;;;9.20;99.90;;;;;;5013745;28;19933;-74
2020/12/24 05:02:31;;;;;;;;;;;9.30;99.90;;;;;;5013684;28;20461;-74
2020/12/24 05:04:57;;;;;;;;;;;9.30;99.90;;;;;;5013855;28;19972;-74
2020/12/24 05:07:23;;;;;;;;;;;9.30;99.90;;;;;;5014774;28;19933;-74
2020/12/24 05:09:49;;;;;;;;;;;9.30;99.90;;;;;;5022772;28;19925;-74
2020/12/24 05:12:26;;;;;;;;;;;9.30;99.90;;;;;;5013826;28;19925;-74
2020/12/24 05:14:52;;;;;;;;;;;9.20;99.90;;;;;;5014819;28;20330;-74
2020/12/24 05:17:21;;;;;;;;;;;9.20;99.90;;;;;;5033523;28;19932;-74
2020/12/24 05:19:58;;;;;;;;;;;9.20;99.90;;;;;;5028049;28;19933;-74
2020/12/24 05:22:24;;;;;;;;;;;9.30;99.90;;;;;;5013340;28;19968;-74
2020/12/24 05:24:50;;;;;;;;;;;9.30;99.90;;;;;;5013461;28;19933;-74
2020/12/24 05:27:16;;;;;;;;;;;9.30;99.90;;;;;;5013692;28;19926;-74
2020/12/24 05:29:44;;;;;;;;;;;9.30;99.90;;;;;;5013347;28;19932;-74
2020/12/24 05:32:11;;;;;;;;;;;9.30;99.90;;;;;;5013165;28;19940;-74
2020/12/24 05:34:37;;;;;;;;;;;9.30;99.90;;;;;;5013199;28;19932;-74
2020/12/24 05:37:10;;;;;;;;;;;9.30;99.90;;;;;;5013463;28;19930;-74
2020/12/24 05:39:36;;;;;;;;;;;9.30;99.90;;;;;;5013413;28;19926;-74
2020/12/24 05:42:03;;;;;;;;;;;9.30;99.90;;;;;;5012908;28;19952;-73
2020/12/24 05:44:29;;;;;;;;;;;9.30;99.90;;;;;;5027982;28;19956;-74
2020/12/24 05:46:56;;;;;;;;;;;9.30;99.90;;;;;;5032874;28;19932;-74
2020/12/24 05:49:22;;;;;;;;;;;9.30;99.90;;;;;;5021609;28;19932;-74
2020/12/24 05:51:49;;;;;;;;;;;9.30;99.90;;;;;;5012777;28;20329;-74
2020/12/24 05:54:15;;;;;;;;;;;9.30;99.90;;;;;;5013028;28;19980;-74
2020/12/24 05:56:42;;;;;;;;;;;9.30;99.90;;;;;;5012841;28;20459;-74
2020/12/24 05:59:12;;;;;;;;;;;9.30;99.90;;;;;;5013012;28;20305;-74
2020/12/24 06:01:39;;;;;;;;;;;9.30;99.90;;;;;;5028604;28;19979;-74
2020/12/24 06:04:07;;;;;;;;;;;9.30;99.90;;;;;;5032822;28;19925;-74
2020/12/24 06:06:43;;;;;;;;;;;9.20;99.90;;;;;;5032584;28;20301;-74
2020/12/24 06:09:11;;;;;;;;;;;9.10;99.90;;;;;;5032469;28;20023;-75
2020/12/24 06:11:42;;;;;;;;;;;9.10;99.90;;;;;;5026807;28;19926;-74
2020/12/24 06:14:13;;;;;;;;;;;9.00;99.90;;;;;;5012567;28;19967;-74
2020/12/24 06:16:40;;;;;;;;;;;9.00;99.90;;;;;;5012807;28;20378;-74
2020/12/24 06:19:07;;;;;;;;;;;8.90;99.90;;;;;;5012873;28;19925;-74
2020/12/24 06:21:33;;;;;;;;;;;8.90;99.90;;;;;;5012462;28;19925;-74
2020/12/24 06:24:00;;;;;;;;;;;8.90;99.90;;;;;;5014169;28;19930;-74
2020/12/24 06:26:27;;;;;;;;;;;8.90;99.90;;;;;;5032381;28;19925;-74
2020/12/24 06:28:54;;;;;;;;;;;8.80;99.90;;;;;;5032239;28;19929;-74
2020/12/24 06:31:21;;;;;;;;;;;8.80;99.90;;;;;;5031258;28;20390;-74
2020/12/24 06:33:47;;;;;;;;;;;8.70;99.90;;;;;;5032404;28;19988;-74
2020/12/24 06:36:31;;;;;;;;;;;8.70;99.90;;;;;;5024182;28;20385;-74
2020/12/24 06:38:58;;;;;;;;;;;8.60;99.90;;;;;;5023828;28;19931;-74
2020/12/24 06:41:26;;;;;;;;;;;8.50;99.90;;;;;;5021267;28;20035;-74
2020/12/24 06:43:53;;;;;;;;;;;8.50;99.90;;;;;;5013506;28;20294;-74
2020/12/24 06:46:19;;;;;;;;;;;8.40;99.90;;;;;;5032436;28;19949;-74
2020/12/24 06:49:04;;;;;;;;;;;8.40;99.90;;;;;;5031848;28;19925;-74
2020/12/24 06:51:47;;;;;;;;;;;8.40;99.90;;;;;;5031642;28;20297;-74
2020/12/24 06:54:23;;;;;;;;;;;8.40;99.90;;;;;;5032114;28;19925;-74
2020/12/24 06:56:50;;;;;;;;;;;8.30;99.90;;;;;;5019025;28;19933;-74
2020/12/24 06:59:19;;;;;;;;;;;8.20;99.90;;;;;;5024263;28;20270;-74
2020/12/24 07:01:59;;;;;;;;;;;8.10;99.90;;;;;;5031303;28;19929;-73
2020/12/24 07:04:34;;;;;;;;;;;8.10;99.90;;;;;;5032117;28;19925;-74
2020/12/24 07:07:01;;;;;;;;;;;8.10;99.90;;;;;;5031835;28;19925;-74
2020/12/24 07:09:45;;;;;;;;;;;8.10;99.90;;;;;;5017801;28;19929;-75
2020/12/24 07:12:26;;;;;;;;;;;8.10;99.90;;;;;;5014910;28;19952;-74
2020/12/24 07:14:52;;;;;;;;;;;8.10;99.90;;;;;;5014336;28;19925;-74
2020/12/24 07:17:19;;;;;;;;;;;8.10;99.90;;;;;;5016120;28;20305;-74
2020/12/24 07:19:46;;;;;;;;;;;8.00;99.90;;;;;;5015590;28;19926;-74
2020/12/24 07:22:14;;;;;;;;;;;8.00;99.90;;;;;;5016029;28;20293;-74
2020/12/24 07:24:40;;;;;;;;;;;7.90;99.90;;;;;;5016162;28;19926;-76
2020/12/24 07:27:06;;;;;;;;;;;7.80;99.90;;;;;;5035386;28;19929;-74
2020/12/24 07:29:33;;;;;;;;;;;7.80;99.90;;;;;;5034047;28;20289;-74
2020/12/24 07:32:03;;;;;;;;;;;7.80;99.90;;;;;;5020300;28;19964;-74
2020/12/24 07:34:30;;;;;;;;;;;7.70;99.90;;;;;;5015704;28;19925;-74
2020/12/24 07:36:56;;;;;;;;;;;7.70;99.90;;;;;;5015631;28;19925;-75
2020/12/24 07:39:23;;;;;;;;;;;7.60;99.90;;;;;;5015517;28;20337;-74
2020/12/24 07:41:49;;;;;;;;;;;7.60;99.90;;;;;;5015059;28;19937;-75
2020/12/24 07:44:16;;;;;;;;;;;7.60;99.90;;;;;;5016731;28;19925;-74
2020/12/24 07:46:42;;;;;;;;;;;7.50;99.90;;;;;;5015416;28;19926;-74
2020/12/24 07:49:08;;;;;;;;;;;7.50;99.90;;;;;;5015371;28;20341;-75
2020/12/24 07:51:34;;;;;;;;;;;7.60;99.90;;;;;;5027043;28;19979;-75
2020/12/24 07:54:07;;;;;;;;;;;7.70;99.90;;;;;;5034878;28;19929;-74
2020/12/24 07:56:34;;;;;;;;;;;7.70;99.90;;;;;;5034728;28;19925;-74
2020/12/24 07:59:01;;;;;;;;;;;7.90;99.90;;;;;;5006550;28;19925;-75
2020/12/24 08:01:27;;;;;;;;;;;8.10;99.90;;;;;;5014713;28;19925;-75
2020/12/24 08:03:56;;;;;;;;;;;8.40;99.90;;;;;;5014977;28;20003;-75
2020/12/24 08:06:22;;;;;;;;;;;8.80;99.90;;;;;;5016073;28;19932;-75
2020/12/24 08:08:48;;;;;;;;;;;9.10;99.90;;;;;;5014837;28;19929;-74
2020/12/24 08:11:14;;;;;;;;;;;9.30;99.90;;;;;;5014587;28;19992;-75
2020/12/24 08:13:41;;;;;;;;;;;9.90;99.90;;;;;;5014884;28;19952;-73
2020/12/24 08:16:11;;;;;;;;;;;10.70;99.90;;;;;;5014854;28;19948;-74
2020/12/24 08:18:39;;;;;;;;;;;11.20;99.90;;;;;;5014696;28;19925;-74
2020/12/24 08:21:08;;;;;;;;;;;11.60;99.90;;;;;;5014093;28;19926;-74
2020/12/24 08:23:45;;;;;;;;;;;11.90;99.90;;;;;;5014765;28;19980;-74
2020/12/24 08:26:12;;;;;;;;;;;12.00;99.90;;;;;;5025238;28;19967;-73
2020/12/24 08:28:39;;;;;;;;;;;11.20;99.90;;;;;;5033852;28;19925;-73
2020/12/24 08:31:08;;;;;;;;;;;10.30;99.90;;;;;;5033491;28;20321;-72
2020/12/24 08:33:34;;;;;;;;;;;9.60;99.90;;;;;;5033930;28;19929;-73
2020/12/24 08:36:11;;;;;;;;;;;9.40;99.90;;;;;;5033309;28;19933;-73
2020/12/24 08:38:37;;;;;;;;;;;9.30;99.90;;;;;;5025607;28;20337;-73
2020/12/24 08:41:03;;;;;;;;;;;9.00;99.90;;;;;;5013635;28;19925;-74
2020/12/24 08:43:31;;;;;;;;;;;8.90;99.90;;;;;;5013924;28;19948;-75
2020/12/24 08:45:57;;;;;;;;;;;8.70;99.90;;;;;;5013969;28;20397;-73
2020/12/24 08:48:30;;;;;;;;;;;8.80;99.90;;;;;;5014036;28;19929;-74
2020/12/24 08:50:56;;;;;;;;;;;9.00;99.90;;;;;;5013649;28;19925;-74
2020/12/24 08:53:23;;;;;;;;;;;9.10;99.90;;;;;;5016152;28;19925;-73
2020/12/24 08:55:49;;;;;;;;;;;9.50;99.90;;;;;;5033285;28;20341;-74
2020/12/24 08:58:15;;;;;;;;;;;10.10;99.90;;;;;;5004011;28;19929;-74
2020/12/24 09:00:41;;;;;;;;;;;11.10;99.90;;;;;;5033257;28;19929;-74
2020/12/24 09:03:20;;;;;;;;;;;11.70;99.90;;;;;;5033659;28;20388;-74
2020/12/24 09:05:47;;;;;;;;;;;11.30;99.90;;;;;;5015307;28;20384;-74
2020/12/24 09:08:21;;;;;;;;;;;10.40;99.90;;;;;;5013815;28;19925;-74
2020/12/24 09:10:47;;;;;;;;;;;9.90;99.90;;;;;;5013391;28;20393;-70
2020/12/24 09:13:13;;;;;;;;;;;9.40;99.90;;;;;;5013652;28;19937;-71
2020/12/24 09:15:39;;;;;;;;;;;9.20;99.90;;;;;;5013836;28;20267;-71
2020/12/24 09:18:06;;;;;;;;;;;9.10;99.90;;;;;;5013532;28;19925;-72
2020/12/24 09:20:33;;;;;;;;;;;8.90;99.90;;;;;;5013427;28;19929;-71
2020/12/24 09:23:01;;;;;;;;;;;8.70;99.90;;;;;;5014530;28;19925;-72
2020/12/24 09:25:30;;;;;;;;;;;8.50;99.90;;;;;;5023276;28;19937;-75
2020/12/24 09:27:57;;;;;;;;;;;8.40;99.90;;;;;;5032706;28;20377;-74
2020/12/24 09:30:23;;;;;;;;;;;8.30;99.90;;;;;;5032358;28;20373;-73
2020/12/24 09:32:52;;;;;;;;;;;8.30;99.90;;;;;;5032721;28;19924;-71
2020/12/24 09:35:18;;;;;;;;;;;8.30;99.90;;;;;;5032665;28;20344;-73
2020/12/24 09:37:44;;;;;;;;;;;8.30;99.90;;;;;;5017944;28;19930;-72
2020/12/24 09:40:11;;;;;;;;;;;8.30;99.90;;;;;;5012702;28;19995;-72
2020/12/24 09:42:37;;;;;;;;;;;8.30;99.90;;;;;;5014463;28;19925;-73
2020/12/24 09:45:03;;;;;;;;;;;8.20;99.90;;;;;;4993644;28;19925;-72
2020/12/24 09:47:29;;;;;;;;;;;8.30;99.90;;;;;;5018920;28;20389;-73
2020/12/24 09:49:55;;;;;;;;;;;8.30;99.90;;;;;;5032564;28;19925;-71
2020/12/24 09:52:21;;;;;;;;;;;8.30;99.90;;;;;;5020957;28;19932;-73
2020/12/24 09:54:47;;;;;;;;;;;8.40;99.90;;;;;;5012734;28;19926;-72
2020/12/24 09:57:14;;;;;;;;;;;8.40;99.90;;;;;;5012007;28;19933;-72
2020/12/24 09:59:40;;;;;;;;;;;8.40;99.90;;;;;;5012175;28;19929;-70
2020/12/24 10:02:06;;;;;;;;;;;8.40;99.90;;;;;;5011806;28;19980;-71
2020/12/24 10:04:32;;;;;;;;;;;8.40;99.90;;;;;;5012063;28;20382;-71
2020/12/24 10:06:58;;;;;;;;;;;8.40;99.90;;;;;;5028305;28;19933;-73
2020/12/24 10:09:24;;;;;;;;;;;8.50;99.90;;;;;;5019217;28;19929;-74
2020/12/24 10:11:50;;;;;;;;;;;8.50;99.90;;;;;;5016094;28;19926;-74
2020/12/24 10:14:17;;;;;;;;;;;8.60;99.90;;;;;;5012085;28;19926;-74
2020/12/24 10:16:43;;;;;;;;;;;8.60;99.90;;;;;;5011905;28;19926;-74
2020/12/24 10:19:09;;;;;;;;;;;8.60;99.90;;;;;;5011858;28;19933;-74
2020/12/24 10:21:35;;;;;;;;;;;8.70;99.90;;;;;;5011458;28;19975;-74
2020/12/24 10:24:06;;;;;;;;;;;8.60;99.90;;;;;;5011887;28;19930;-73
2020/12/24 10:26:31;;;;;;;;;;;8.60;99.90;;;;;;5011795;28;19925;-74
2020/12/24 10:28:58;;;;;;;;;;;8.60;99.90;;;;;;5011600;28;19952;-74
2020/12/24 10:31:24;;;;;;;;;;;8.70;99.90;;;;;;5011396;28;20000;-73
2020/12/24 10:33:50;;;;;;;;;;;8.70;99.90;;;;;;5011848;28;19925;-74
2020/12/24 10:36:20;;;;;;;;;;;8.70;99.90;;;;;;5011449;28;19953;-74
2020/12/24 10:38:46;;;;;;;;;;;8.70;99.90;;;;;;5011502;28;19925;-74
2020/12/24 10:41:12;;;;;;;;;;;8.80;99.90;;;;;;5011321;28;20369;-74
2020/12/24 10:43:38;;;;;;;;;;;8.80;99.90;;;;;;5012100;28;19996;-74
2020/12/24 10:46:04;;;;;;;;;;;8.70;99.90;;;;;;5015013;28;20415;-74
2020/12/24 10:48:31;;;;;;;;;;;8.80;99.90;;;;;;5014770;28;20396;-74
2020/12/24 10:50:57;;;;;;;;;;;8.80;99.90;;;;;;5014555;28;19929;-74
2020/12/24 10:53:23;;;;;;;;;;;8.70;99.90;;;;;;5014808;28;19958;-74
2020/12/24 10:55:49;;;;;;;;;;;8.70;99.90;;;;;;4972802;28;1220149;-73
2020/12/24 10:58:15;;;;;;;;;;;8.80;99.90;;;;;;5016241;28;19929;-74
2020/12/24 11:00:41;;;;;;;;;;;8.70;99.90;;;;;;5015870;28;19930;-74
2020/12/24 11:03:07;;;;;;;;;;;8.70;99.90;;;;;;5015988;28;19926;-74
2020/12/24 11:05:36;;;;;;;;;;;8.80;99.90;;;;;;5016032;28;19925;-74
2020/12/24 11:08:02;;;;;;;;;;;8.70;99.90;;;;;;5016204;28;19954;-74
2020/12/24 11:10:28;;;;;;;;;;;8.70;99.90;;;;;;5015621;28;19930;-74
2020/12/24 11:12:54;;;;;;;;;;;8.60;99.90;;;;;;5016014;28;19925;-74
2020/12/24 11:15:20;;;;;;;;;;;8.70;99.90;;;;;;5016080;28;19960;-75
2020/12/24 11:17:46;;;;;;;;;;;8.60;99.90;;;;;;5015749;28;19954;-74
2020/12/24 11:20:12;;;;;;;;;;;8.60;99.90;;;;;;5015331;28;19926;-74
2020/12/24 11:22:39;;;;;;;;;;;8.50;99.90;;;;;;5015881;28;19934;-74
2020/12/24 11:25:04;;;;;;;;;;;8.50;99.90;;;;;;5015783;28;19929;-74
2020/12/24 11:27:30;;;;;;;;;;;8.40;99.90;;;;;;5015817;28;19933;-75
2020/12/24 11:29:56;;;;;;;;;;;8.20;99.90;;;;;;5015250;28;19932;-75
2020/12/24 11:32:22;;;;;;;;;;;8.10;99.90;;;;;;5015592;28;19925;-75
2020/12/24 11:34:48;;;;;;;;;;;8.10;99.90;;;;;;5015525;28;19932;-75
2020/12/24 11:37:14;;;;;;;;;;;8.00;99.90;;;;;;5015407;28;19952;-75
2020/12/24 11:39:41;;;;;;;;;;;8.00;99.90;;;;;;5015657;28;19929;-75
2020/12/24 11:42:08;;;;;;;;;;;7.90;99.90;;;;;;5015154;28;19925;-75
2020/12/24 11:44:34;;;;;;;;;;;7.80;99.90;;;;;;5015287;28;19932;-74
2020/12/24 11:47:00;;;;;;;;;;;7.60;99.90;;;;;;5015300;28;19926;-75
2020/12/24 11:49:26;;;;;;;;;;;7.60;99.90;;;;;;5015141;28;20305;-74
2020/12/24 11:51:52;;;;;;;;;;;7.60;99.90;;;;;;5015168;28;19925;-74
2020/12/24 11:54:18;;;;;;;;;;;7.60;99.90;;;;;;5014857;28;20519;-74
2020/12/24 11:56:46;;;;;;;;;;;7.60;99.90;;;;;;5015385;28;19986;-75
2020/12/24 11:59:12;;;;;;;;;;;7.40;99.90;;;;;;5014994;28;20378;-75
2020/12/24 12:01:38;;;;;;;;;;;7.40;99.90;;;;;;5014681;28;19925;-73
2020/12/24 12:04:04;;;;;;;;;;;7.40;99.90;;;;;;5015207;28;19979;-74
2020/12/24 12:06:31;;;;;;;;;;;7.40;99.90;;;;;;5015045;28;20290;-74
2020/12/24 12:08:57;;;;;;;;;;;7.40;99.90;;;;;;5014964;28;19932;-73
2020/12/24 12:11:23;;;;;;;;;;;7.50;99.90;;;;;;5014426;28;19926;-73
2020/12/24 12:13:50;;;;;;;;;;;7.40;99.90;;;;;;5014827;28;19998;-74
2020/12/24 12:16:21;;;;;;;;;;;7.30;99.90;;;;;;5014793;28;19929;-74
2020/12/24 12:18:49;;;;;;;;;;;7.30;99.90;;;;;;5014715;28;19925;-75
2020/12/24 12:21:16;;;;;;;;;;;7.20;99.90;;;;;;5014311;28;19929;-74
2020/12/24 12:23:42;;;;;;;;;;;7.30;99.90;;;;;;5014666;28;20448;-74
2020/12/24 12:26:09;;;;;;;;;;;7.40;99.90;;;;;;5014536;28;20377;-73
2020/12/24 12:28:35;;;;;;;;;;;7.30;99.90;;;;;;5014384;28;19929;-73
2020/12/24 12:31:03;;;;;;;;;;;7.30;99.90;;;;;;5014033;28;19932;-73
2020/12/24 12:33:29;;;;;;;;;;;7.30;99.90;;;;;;5014745;28;19973;-73
2020/12/24 12:35:55;;;;;;;;;;;7.30;99.90;;;;;;5014543;28;19930;-73
2020/12/24 12:38:21;;;;;;;;;;;7.20;99.90;;;;;;5014399;28;19932;-73
2020/12/24 12:40:47;;;;;;;;;;;7.10;99.90;;;;;;5013829;28;20509;-73
2020/12/24 12:43:13;;;;;;;;;;;6.90;99.90;;;;;;5014170;28;19981;-72
2020/12/24 12:45:39;;;;;;;;;;;6.70;99.90;;;;;;5013989;28;19932;-73
2020/12/24 12:48:06;;;;;;;;;;;6.70;99.90;;;;;;5014349;28;20585;-72
2020/12/24 12:50:32;;;;;;;;;;;6.60;99.90;;;;;;5013890;28;19979;-73
2020/12/24 12:52:58;;;;;;;;;;;6.50;99.90;;;;;;5014114;28;20286;-73
2020/12/24 12:55:24;;;;;;;;;;;6.40;99.90;;;;;;5013809;28;19956;-73
2020/12/24 12:57:50;;;;;;;;;;;6.40;99.90;;;;;;5013867;28;19933;-74
2020/12/24 13:00:16;;;;;;;;;;;6.40;99.90;;;;;;5013472;28;19942;-74
2020/12/24 13:02:42;;;;;;;;;;;6.40;99.90;;;;;;5013743;28;19987;-74
2020/12/24 13:05:09;;;;;;;;;;;6.30;99.90;;;;;;5013970;28;19926;-74
2020/12/24 13:07:35;;;;;;;;;;;6.20;99.90;;;;;;5013029;28;19929;-74
2020/12/24 13:10:02;;;;;;;;;;;6.20;99.90;;;;;;5013351;28;19972;-74
2020/12/24 13:12:28;;;;;;;;;;;6.10;99.90;;;;;;5013590;28;19926;-74
2020/12/24 13:14:54;;;;;;;;;;;6.10;99.90;;;;;;5013543;28;19933;-74
2020/12/24 13:17:21;;;;;;;;;;;6.00;99.90;;;;;;5013824;28;20359;-73
2020/12/24 13:19:47;;;;;;;;;;;5.90;99.90;;;;;;5013354;28;20028;-73
2020/12/24 13:22:14;;;;;;;;;;;5.80;99.90;;;;;;5013365;28;20394;-73
2020/12/24 13:24:42;;;;;;;;;;;5.60;99.90;;;;;;5013480;28;19948;-73
2020/12/24 13:27:08;;;;;;;;;;;5.50;99.90;;;;;;5013359;28;20278;-73
2020/12/24 13:29:34;;;;;;;;;;;6.60;99.90;;;;;;5013343;28;20298;-73
2020/12/24 13:32:00;;;;;;;;;;;5.20;99.90;;;;;;5013508;28;19933;-73
2020/12/24 13:34:26;;;;;;;;;;;5.00;99.90;;;;;;5013388;28;19925;-74
2020/12/24 13:36:52;;;;;;;;;;;4.80;99.90;;;;;;5013565;28;19933;-74
2020/12/24 13:39:19;;;;;;;;;;;4.70;99.90;;;;;;5013254;28;19979;-74
2020/12/24 13:41:48;;;;;;;;;;;4.60;99.90;;;;;;5012638;28;20297;-73
2020/12/24 13:44:14;;;;;;;;;;;4.60;99.90;;;;;;5013014;28;19930;-74
2020/12/24 13:46:44;;;;;;;;;;;4.60;99.90;;;;;;5013291;28;20279;-74
2020/12/24 13:49:10;;;;;;;;;;;4.50;99.90;;;;;;5013152;28;19925;-74
2020/12/24 13:51:36;;;;;;;;;;;4.60;99.90;;;;;;5012652;28;19926;-74
2020/12/24 13:54:02;;;;;;;;;;;4.60;99.90;;;;;;5012836;28;19930;-73
2020/12/24 13:56:29;;;;;;;;;;;4.50;99.90;;;;;;5012902;28;20385;-73
2020/12/24 13:58:55;;;;;;;;;;;4.50;99.90;;;;;;5013011;28;20481;-75
2020/12/24 14:01:21;;;;;;;;;;;4.50;99.90;;;;;;5012651;28;19925;-73
2020/12/24 14:03:47;;;;;;;;;;;4.40;99.90;;;;;;5012824;28;20345;-74
2020/12/24 14:06:13;;;;;;;;;;;4.40;99.90;;;;;;5012807;28;19925;-73
2020/12/24 14:08:39;;;;;;;;;;;4.40;99.90;;;;;;5012769;28;19971;-73
2020/12/24 14:11:05;;;;;;;;;;;4.30;99.90;;;;;;5012262;28;19930;-73
2020/12/24 14:13:33;;;;;;;;;;;4.30;99.90;;;;;;5012859;28;19925;-74
2020/12/24 14:15:59;;;;;;;;;;;4.30;99.90;;;;;;5012847;28;19932;-73
2020/12/24 14:18:25;;;;;;;;;;;4.30;99.90;;;;;;5012676;28;19930;-72
2020/12/24 14:20:51;;;;;;;;;;;4.20;99.90;;;;;;5012266;28;19925;-72
2020/12/24 14:23:17;;;;;;;;;;;4.20;99.90;;;;;;5012577;28;19925;-72
2020/12/24 14:25:43;;;;;;;;;;;4.20;99.90;;;;;;5012516;28;19929;-73